Prairie Grove, Iowa
Current Conditions -  °F | °C
As of 3:53 PM on Wednesday 28 Jan 2015 (Local Time) from KBRL Reporting Station
Clear Clear  
Wind Chill: 35°   Ceiling: Unl
Heat Index: 42°   Visibility: 10mi
Dew Point: 32°   Wind: 14mph
Humidity: 67%   Direction: 160°SSE
Pressure: 29.87"   Gusts: 23mph
Location:  40.8198°N, 91.2162°W
Report Text: KBRL 282153Z AUTO 16012G20KT 10SM CLR 06/00 A2987 RMK AO2 SLP120 T00560000
Loading
Personal Weather Stations






























Interactive Weather Map New forecast layout! Learn more

10-Day Weather Forecast

Advertisements
Track Severe Weather on mobile